Time;durP1;ratioP1;P1;durP2;ratioP2;P2;SDS_P1;SDS_P2;PMS_P1;PMS_P2;Temp;Humidity;BMP_temperature;BMP_pressure;BME280_temperature;BME280_humidity;BME280_pressure;Samples;Min_cycle;Max_cycle;Signal;HPM_P1;HPM_P2
2021/12/18 00:01:05;;;;;;;8.10;7.03;;;3.60;94.80;;;3.41;66.90;95288.84;5098816;28;20497;-57
2021/12/18 00:03:32;;;;;;;12.33;7.00;;;3.70;94.80;;;3.44;66.05;95294.78;5098343;28;20493;-56
2021/12/18 00:06:01;;;;;;;9.50;6.37;;;3.70;94.60;;;3.44;66.41;95295.66;5103872;28;20465;-56
2021/12/18 00:08:28;;;;;;;8.00;7.00;;;3.70;94.50;;;3.45;65.96;95299.09;5098207;28;20449;-56
2021/12/18 00:10:55;;;;;;;8.43;6.70;;;3.70;94.50;;;3.45;66.61;95291.28;5100630;28;20481;-56
2021/12/18 00:13:23;;;;;;;10.00;7.50;;;3.70;94.60;;;3.46;66.50;95288.59;5098017;28;20477;-56
2021/12/18 00:15:51;;;;;;;11.53;7.40;;;3.70;94.70;;;3.48;66.41;95291.94;5096427;28;20548;-56
2021/12/18 00:18:18;;;;;;;12.37;7.57;;;3.70;94.70;;;3.50;66.35;95289.25;5096203;28;20450;-55
2021/12/18 00:20:45;;;;;;;18.80;6.93;;;3.70;94.70;;;3.51;66.92;95293.53;5094964;28;20473;-57
2021/12/18 00:23:14;;;;;;;9.83;7.40;;;3.80;94.70;;;3.52;66.09;95290.03;5099227;28;20616;-55
2021/12/18 00:25:41;;;;;;;10.83;7.20;;;3.80;94.30;;;3.50;65.72;95300.50;5101500;28;20457;-56
2021/12/18 00:28:08;;;;;;;10.43;7.00;;;3.80;94.40;;;3.50;66.44;95297.91;5097966;28;20453;-57
2021/12/18 00:30:36;;;;;;;10.27;7.70;;;3.80;94.40;;;3.51;66.71;95304.78;5098613;28;20877;-57
2021/12/18 00:33:03;;;;;;;12.77;8.90;;;3.80;94.50;;;3.52;66.20;95305.63;5097744;28;20441;-56
2021/12/18 00:35:32;;;;;;;12.70;8.70;;;3.80;94.30;;;3.52;65.68;95306.44;5099335;28;20450;-57
2021/12/18 00:38:00;;;;;;;8.77;7.47;;;3.80;94.40;;;3.50;65.53;95299.66;5101083;28;20540;-55
2021/12/18 00:40:32;;;;;;;7.70;6.90;;;3.80;94.10;;;3.48;65.97;95301.50;5095774;28;20950;-56
2021/12/18 00:43:02;;;;;;;13.47;7.73;;;3.70;94.00;;;3.44;65.04;95306.06;5092557;28;20478;-56
2021/12/18 00:45:29;;;;;;;10.70;7.60;;;3.70;94.00;;;3.40;65.90;95299.34;5094341;28;20450;-55
2021/12/18 00:47:57;;;;;;;13.00;9.10;;;3.70;94.00;;;3.41;65.71;95308.81;5096277;28;20488;-56
2021/12/18 00:50:26;;;;;;;12.00;9.20;;;3.70;94.20;;;3.41;66.39;95308.81;5099087;28;20446;-56
2021/12/18 00:52:53;;;;;;;11.20;7.90;;;3.70;94.20;;;3.43;66.29;95309.56;5097330;28;20460;-56
2021/12/18 00:55:21;;;;;;;14.93;8.43;;;3.60;94.30;;;3.45;66.33;95307.72;5095402;28;20457;-58
2021/12/18 00:57:50;;;;;;;11.97;8.13;;;3.70;94.30;;;3.47;66.48;95310.22;5101331;28;20500;-55
2021/12/18 01:00:23;;;;;;;12.63;8.60;;;3.70;94.30;;;3.46;66.17;95312.00;5101186;28;20454;-55
2021/12/18 01:02:52;;;;;;;12.27;7.80;;;3.70;94.00;;;3.45;65.30;95299.91;5096506;27;20446;-55
2021/12/18 01:05:19;;;;;;;13.30;7.83;;;3.70;94.00;;;3.44;65.15;95300.84;5104605;28;20871;-57
2021/12/18 01:07:47;;;;;;;14.03;8.03;;;3.70;93.70;;;3.45;65.37;95301.69;5096021;28;20511;-56
2021/12/18 01:10:35;;;;;;;9.27;6.97;;;3.70;93.70;;;3.44;65.58;95305.19;5097706;28;20453;-54
2021/12/18 01:13:06;;;;;;;10.30;7.03;;;3.70;93.90;;;3.45;65.32;95302.50;5095184;28;20463;-57
2021/12/18 01:15:37;;;;;;;12.23;6.83;;;3.70;93.80;;;3.43;65.73;95301.78;5098016;28;20431;-56
2021/12/18 01:23:34;;;;;;;11.43;7.07;;;3.60;93.50;;;3.33;64.27;95296.25;5097822;28;20624;-56
2021/12/18 01:26:03;;;;;;;9.90;6.23;;;3.60;93.40;;;3.30;65.05;95293.81;5096295;28;20465;-56
2021/12/18 01:28:32;;;;;;;9.03;6.03;;;3.60;93.20;;;3.29;65.04;95296.50;5093571;28;20454;-55
2021/12/18 01:30:59;;;;;;;9.60;6.00;;;3.60;93.60;;;3.29;65.61;95301.72;5094902;28;20474;-56
2021/12/18 01:33:26;;;;;;;8.87;6.73;;;3.60;93.50;;;3.28;65.07;95294.81;5091060;28;20449;-56
2021/12/18 01:35:54;;;;;;;7.83;6.60;;;3.50;93.50;;;3.26;65.15;95296.69;5090878;28;20476;-55
2021/12/18 01:38:22;;;;;;;10.10;7.10;;;3.50;93.30;;;3.26;65.35;95307.06;5093634;28;20540;-56
2021/12/18 01:40:50;;;;;;;9.47;7.30;;;3.50;93.40;;;3.22;65.06;95302.03;5098960;28;20488;-55
2021/12/18 01:46:18;;;;;;;10.43;7.20;;;3.50;93.40;;;3.20;65.36;95297.84;5090695;28;20503;-57
2021/12/18 01:51:47;;;;;;;13.10;7.00;;;3.50;93.70;;;3.20;65.48;95293.47;5095639;28;21053;-57
2021/12/18 01:54:14;;;;;;;7.97;6.03;;;3.50;93.60;;;3.22;65.39;95298.59;5094490;28;20834;-55
2021/12/18 01:56:42;;;;;;;9.50;6.63;;;3.50;93.60;;;3.22;65.80;95283.84;5095078;28;20478;-56
2021/12/18 01:59:09;;;;;;;9.57;7.30;;;3.50;93.60;;;3.23;65.20;95290.72;5102292;28;20474;-57
2021/12/18 02:01:38;;;;;;;12.07;7.83;;;3.50;93.90;;;3.22;65.65;95291.66;5097280;28;20468;-54
2021/12/18 02:04:05;;;;;;;13.10;7.43;;;3.50;93.50;;;3.22;64.92;95290.78;5098500;28;20869;-56
2021/12/18 02:06:32;;;;;;;12.50;8.50;;;3.50;93.50;;;3.20;64.87;95288.28;5097433;28;20474;-57
2021/12/18 02:09:00;;;;;;;11.40;7.87;;;3.40;93.30;;;3.17;65.17;95291.03;5099722;28;20507;-57
2021/12/18 02:11:32;;;;;;;13.00;8.67;;;3.40;93.40;;;3.15;65.04;95286.88;5096724;28;20541;-56
2021/12/18 02:19:56;;;;;;;10.07;6.80;;;3.40;93.70;;;3.15;65.17;95292.91;5095581;28;20878;-57
2021/12/18 02:22:26;;;;;;;11.10;7.13;;;3.40;93.70;;;3.16;66.10;95288.53;5093312;28;20518;-55
2021/12/18 02:24:53;;;;;;;7.50;6.00;;;3.40;93.80;;;3.15;65.66;95294.66;5095130;28;20476;-57
2021/12/18 02:27:21;;;;;;;9.20;7.60;;;3.40;93.60;;;3.15;65.17;95284.28;5097390;28;20470;-57
2021/12/18 02:29:48;;;;;;;12.13;7.80;;;3.40;93.60;;;3.15;65.67;95285.09;5097150;28;21000;-56
2021/12/18 02:32:20;;;;;;;11.63;7.73;;;3.40;93.60;;;3.15;65.35;95286.88;5096166;28;20473;-56
2021/12/18 02:34:52;;;;;;;11.50;8.43;;;3.40;93.40;;;3.14;65.96;95285.19;5099739;28;20442;-55
2021/12/18 02:37:29;;;;;;;10.73;7.40;;;3.40;93.50;;;3.12;65.29;95285.28;5097260;28;20461;-55
2021/12/18 02:42:42;;;;;;;8.77;6.73;;;3.40;93.60;;;3.06;65.13;95293.41;5089777;28;20576;-57
2021/12/18 02:45:12;;;;;;;12.13;8.30;;;3.30;93.70;;;3.06;65.90;95296.00;5093859;28;20493;-55
2021/12/18 02:47:39;;;;;;;14.67;7.93;;;3.30;93.80;;;3.07;65.94;95300.28;5095214;28;20473;-55
2021/12/18 02:50:07;;;;;;;11.70;7.70;;;3.30;93.80;;;3.06;65.76;95303.78;5097068;28;20501;-57
2021/12/18 02:52:36;;;;;;;14.63;8.57;;;3.30;93.80;;;3.08;66.20;95304.53;5096082;28;20543;-56
2021/12/18 02:55:04;;;;;;;12.23;8.10;;;3.30;93.80;;;3.08;65.75;95309.75;5097002;28;20454;-56
2021/12/18 02:57:31;;;;;;;14.00;7.73;;;3.40;94.00;;;3.12;66.31;95310.44;5099968;28;20873;-55
2021/12/18 02:59:59;;;;;;;8.43;6.53;;;3.40;94.00;;;3.14;65.53;95309.41;5098832;28;20974;-56
2021/12/18 03:02:28;;;;;;;12.00;7.60;;;3.40;94.00;;;3.16;66.15;95304.97;5095392;28;20484;-56
2021/12/18 03:04:59;;;;;;;10.93;7.50;;;3.40;94.10;;;3.20;65.76;95316.88;5097853;28;21037;-55
2021/12/18 03:07:28;;;;;;;10.20;7.80;;;3.50;94.10;;;3.23;65.70;95302.88;5092835;28;20820;-55
2021/12/18 03:24:07;;;;;;;9.93;7.40;;;3.50;94.10;;;3.17;66.60;95327.44;5105459;28;20563;-56
2021/12/18 03:26:36;;;;;;;12.67;7.23;;;3.50;94.30;;;3.16;66.34;95315.38;5098935;28;21074;-56
2021/12/18 03:29:03;;;;;;;10.80;6.67;;;3.40;94.40;;;3.16;66.36;95322.31;5097551;28;20885;-54
2021/12/18 03:31:33;;;;;;;11.60;6.93;;;3.40;94.40;;;3.16;65.99;95317.13;5096079;28;20469;-56
2021/12/18 03:34:01;;;;;;;13.43;9.03;;;3.40;94.40;;;3.16;66.65;95317.97;5093090;28;20907;-55
2021/12/18 03:36:28;;;;;;;28.13;7.50;;;3.40;94.50;;;3.18;66.44;95321.31;5092985;28;21058;-57
2021/12/18 03:38:55;;;;;;;17.43;7.67;;;3.50;94.70;;;3.20;67.00;95327.25;5095723;28;20452;-56
2021/12/18 03:41:22;;;;;;;15.93;8.23;;;3.40;94.60;;;3.21;66.37;95320.31;5102769;28;20523;-57
2021/12/18 03:43:51;;;;;;;12.37;9.00;;;3.50;94.70;;;3.22;67.20;95327.19;5093145;28;20493;-55
2021/12/18 03:46:18;;;;;;;12.43;7.00;;;3.50;94.80;;;3.22;66.41;95328.03;5093358;28;20466;-59
2021/12/18 03:48:46;;;;;;;13.93;7.40;;;3.50;94.70;;;3.23;66.34;95329.69;5101225;28;21182;-56
2021/12/18 03:51:13;;;;;;;11.23;8.10;;;3.50;94.80;;;3.25;66.65;95332.22;5101709;28;20496;-56
2021/12/18 03:53:40;;;;;;;12.17;8.27;;;3.50;94.80;;;3.27;66.85;95329.53;5099304;28;20453;-57
2021/12/18 03:56:07;;;;;;;15.87;9.03;;;3.50;94.80;;;3.27;67.01;95334.72;5095744;28;20469;-55
2021/12/18 03:58:35;;;;;;;14.67;8.20;;;3.60;94.80;;;3.25;66.99;95333.97;5099510;28;20457;-56
2021/12/18 04:01:03;;;;;;;12.17;6.97;;;3.50;94.80;;;3.25;66.96;95337.41;5100093;28;20498;-56
2021/12/18 04:03:30;;;;;;;13.77;8.00;;;3.60;94.80;;;3.23;66.56;95334.06;5098182;28;20446;-55
2021/12/18 04:05:58;;;;;;;14.27;7.57;;;3.50;94.80;;;3.23;66.96;95329.69;5103057;28;20480;-56
2021/12/18 04:08:25;;;;;;;13.03;8.23;;;3.50;94.80;;;3.26;67.51;95330.47;5098867;28;20450;-56
2021/12/18 04:10:52;;;;;;;16.70;8.00;;;3.50;94.90;;;3.27;66.85;95330.38;5099971;28;20525;-54
2021/12/18 04:13:19;;;;;;;12.30;8.23;;;3.50;94.80;;;3.26;67.25;95328.69;5098520;28;20822;-57
2021/12/18 04:15:47;;;;;;;14.60;8.40;;;3.50;94.80;;;3.26;66.72;95339.09;5101135;28;20500;-54
2021/12/18 04:18:15;;;;;;;27.23;9.27;;;3.50;94.80;;;3.27;67.55;95332.13;5093464;28;20458;-55
2021/12/18 04:20:43;;;;;;;16.80;8.77;;;3.60;94.80;;;3.29;67.41;95338.94;5095139;28;20446;-54
2021/12/18 04:23:10;;;;;;;13.73;7.70;;;3.60;94.90;;;3.29;66.56;95336.31;5104352;28;20449;-55
2021/12/18 04:25:37;;;;;;;15.13;8.03;;;3.60;94.80;;;3.30;67.13;95339.75;5097297;28;21097;-57
2021/12/18 04:28:05;;;;;;;10.87;6.70;;;3.60;94.80;;;3.30;67.21;95347.56;5098021;28;20816;-57
2021/12/18 04:30:32;;;;;;;14.03;7.70;;;3.60;94.80;;;3.30;66.61;95340.63;5099260;28;20446;-54
2021/12/18 04:32:59;;;;;;;13.37;7.67;;;3.60;94.80;;;3.30;66.74;95345.81;5097810;28;20473;-58
2021/12/18 04:35:28;;;;;;;11.37;7.60;;;3.60;94.70;;;3.29;66.39;95343.31;5097897;28;20457;-57
2021/12/18 04:37:56;;;;;;;11.63;7.63;;;3.60;94.80;;;3.29;67.00;95349.31;5091912;28;20450;-56
2021/12/18 04:40:25;;;;;;;12.93;7.80;;;3.60;94.80;;;3.30;67.34;95344.97;5092254;28;20511;-55
2021/12/18 04:42:53;;;;;;;10.00;7.07;;;3.60;94.70;;;3.31;66.38;95349.25;5099548;28;20452;-56
2021/12/18 04:45:20;;;;;;;8.67;6.97;;;3.60;94.60;;;3.30;66.36;95339.75;5097111;28;20508;-54
2021/12/18 04:47:47;;;;;;;9.83;6.40;;;3.60;94.50;;;3.29;66.61;95353.69;5097790;28;20996;-56
2021/12/18 04:50:15;;;;;;;13.30;6.50;;;3.50;94.40;;;3.30;66.09;95360.56;5097414;28;20499;-57
2021/12/18 04:52:43;;;;;;;7.20;6.27;;;3.60;94.40;;;3.29;66.25;95367.53;5101774;28;21002;-56
2021/12/18 04:55:11;;;;;;;11.60;6.83;;;3.60;94.40;;;3.29;66.34;95371.91;5098396;28;20519;-57
2021/12/18 04:57:38;;;;;;;6.80;4.90;;;3.60;94.20;;;3.29;65.51;95369.28;5101919;28;20899;-56
2021/12/18 05:00:07;;;;;;;8.20;6.13;;;3.50;94.10;;;3.26;66.30;95375.50;5096584;28;20532;-57
2021/12/18 05:02:38;;;;;;;8.33;5.97;;;3.50;94.10;;;3.27;66.51;95381.50;5099345;28;20888;-57
2021/12/18 05:05:07;;;;;;;7.60;6.30;;;3.50;94.20;;;3.25;65.66;95379.00;5100849;28;20478;-56
2021/12/18 05:07:34;;;;;;;5.50;4.90;;;3.50;93.90;;;3.23;66.13;95381.69;5097851;28;20485;-56
2021/12/18 05:10:03;;;;;;;7.57;5.23;;;3.50;93.90;;;3.22;66.55;95386.97;5095773;28;20446;-56
2021/12/18 05:12:30;;;;;;;6.10;5.50;;;3.50;94.00;;;3.21;66.08;95396.53;5095482;28;20462;-55
2021/12/18 05:14:57;;;;;;;12.27;5.93;;;3.50;94.10;;;3.19;65.48;95400.97;5096251;28;20510;-55
2021/12/18 05:17:24;;;;;;;7.60;5.37;;;3.50;94.00;;;3.17;65.44;95408.00;5098905;27;20468;-57
2021/12/18 05:19:52;;;;;;;10.03;6.50;;;3.40;93.80;;;3.15;64.95;95412.44;5095603;28;20450;-54
2021/12/18 05:22:19;;;;;;;6.57;5.47;;;3.40;93.80;;;3.12;65.61;95407.41;5099513;28;20465;-57
2021/12/18 05:24:46;;;;;;;7.90;5.30;;;3.40;93.80;;;3.10;65.88;95408.41;5099593;28;21021;-58
2021/12/18 05:27:15;;;;;;;11.73;5.67;;;3.40;93.80;;;3.09;65.79;95414.53;5099892;28;20538;-55
2021/12/18 05:29:43;;;;;;;9.80;5.73;;;3.30;93.60;;;3.04;65.49;95417.38;5091687;28;20446;-56
2021/12/18 05:32:10;;;;;;;7.47;5.40;;;3.30;93.70;;;3.03;65.75;95423.50;5092539;28;20462;-55
2021/12/18 05:34:38;;;;;;;9.67;6.50;;;3.30;93.90;;;3.04;65.54;95427.78;5095926;28;20454;-55
2021/12/18 05:37:19;;;;;;;9.10;5.70;;;3.30;94.00;;;3.05;65.96;95432.03;5098495;28;20891;-59
2021/12/18 05:39:47;;;;;;;17.43;6.80;;;3.30;94.10;;;3.07;66.24;95432.81;5096849;28;21311;-56
2021/12/18 05:42:15;;;;;;;12.00;5.73;;;3.30;94.10;;;3.09;66.21;95430.97;5096298;28;20474;-56
2021/12/18 05:44:43;;;;;;;7.30;6.60;;;3.40;94.00;;;3.10;65.27;95431.81;5099252;28;20486;-57
2021/12/18 05:47:10;;;;;;;11.10;6.63;;;3.40;93.90;;;3.09;65.40;95436.16;5094465;28;20473;-55
2021/12/18 05:49:37;;;;;;;10.00;6.30;;;3.30;93.80;;;3.08;65.32;95434.47;5096256;28;20881;-58
2021/12/18 05:52:05;;;;;;;8.03;5.70;;;3.40;93.80;;;3.05;65.17;95437.22;5094904;28;20469;-57
2021/12/18 05:54:35;;;;;;;12.50;6.87;;;3.30;93.60;;;3.02;65.71;95445.19;5091639;28;20446;-56
2021/12/18 05:57:04;;;;;;;9.00;6.70;;;3.30;93.70;;;3.02;65.54;95445.19;5095904;28;20550;-58
2021/12/18 05:59:32;;;;;;;7.10;5.57;;;3.30;93.80;;;3.02;65.46;95448.66;5099715;28;20457;-57
2021/12/18 06:02:00;;;;;;;8.50;6.10;;;3.30;93.80;;;3.03;65.59;95446.88;5095807;28;20478;-57
2021/12/18 06:04:27;;;;;;;12.27;6.47;;;3.30;93.90;;;3.05;65.89;95451.09;5099049;28;20460;-57
2021/12/18 06:07:03;;;;;;;12.00;7.30;;;3.30;94.10;;;3.07;65.80;95453.59;5099270;28;20465;-61
2021/12/18 06:09:30;;;;;;;12.97;6.70;;;3.30;94.20;;;3.10;65.89;95448.25;5096155;28;20441;-58
2021/12/18 06:11:57;;;;;;;15.90;6.67;;;3.40;94.40;;;3.11;67.02;95449.91;5100515;28;20540;-57
2021/12/18 06:14:24;;;;;;;11.00;6.70;;;3.40;94.70;;;3.12;66.67;95454.19;5096439;28;20450;-58
2021/12/18 06:16:53;;;;;;;16.00;6.93;;;3.40;94.70;;;3.15;66.98;95456.63;5096629;28;20475;-55
2021/12/18 06:19:20;;;;;;;10.83;6.37;;;3.40;94.70;;;3.17;66.71;95456.56;5097522;28;20477;-58
2021/12/18 06:21:48;;;;;;;6.57;5.87;;;3.40;94.70;;;3.17;66.96;95454.78;5103040;28;21016;-57
2021/12/18 06:24:15;;;;;;;9.73;5.60;;;3.40;94.70;;;3.19;66.94;95460.78;5097213;28;20461;-56
2021/12/18 06:26:44;;;;;;;6.70;6.00;;;3.50;94.80;;;3.17;66.63;95475.59;5097779;28;20476;-56
2021/12/18 06:29:12;;;;;;;13.00;7.63;;;3.50;94.60;;;3.12;67.15;95472.38;5096683;28;20445;-58
2021/12/18 06:31:39;;;;;;;14.63;7.77;;;3.40;94.50;;;3.10;67.10;95471.63;5098860;28;20581;-57
2021/12/18 06:34:08;;;;;;;11.17;8.17;;;3.40;94.70;;;3.09;67.06;95472.56;5089900;28;20457;-57
2021/12/18 06:36:35;;;;;;;13.90;7.87;;;3.40;94.70;;;3.07;67.43;95476.13;5090006;28;20485;-57
2021/12/18 06:39:03;;;;;;;19.20;14.33;;;3.40;95.10;;;3.08;68.17;95480.44;5101476;28;20453;-57
2021/12/18 06:41:30;;;;;;;30.40;20.10;;;3.40;96.00;;;3.07;68.61;95482.19;5098412;28;20480;-56
2021/12/18 06:43:58;;;;;;;31.50;20.90;;;3.40;95.70;;;3.09;67.81;95485.53;5092749;28;20458;-57
2021/12/18 06:46:25;;;;;;;10.33;8.27;;;3.30;95.50;;;3.11;68.03;95481.09;5098778;28;20564;-57
2021/12/18 06:48:52;;;;;;;11.07;8.27;;;3.40;95.60;;;3.15;68.54;95487.81;5097001;28;20560;-60
2021/12/18 06:51:21;;;;;;;22.50;13.37;;;3.40;95.60;;;3.21;67.82;95487.50;5097109;28;20525;-59
2021/12/18 06:53:48;;;;;;;31.37;17.27;;;3.50;95.70;;;3.27;67.63;95496.75;5095993;28;20454;-58
2021/12/18 06:56:15;;;;;;;18.83;9.77;;;3.60;95.80;;;3.30;68.01;95495.75;5097474;28;20469;-56
2021/12/18 06:58:43;;;;;;;11.60;9.80;;;3.60;95.70;;;3.33;68.21;95504.25;5095462;28;20457;-57
2021/12/18 07:01:11;;;;;;;21.50;12.87;;;3.60;95.60;;;3.35;67.32;95510.19;5095986;28;20473;-57
2021/12/18 07:03:38;;;;;;;19.77;13.30;;;3.60;95.50;;;3.36;67.55;95505.81;5089298;28;20450;-57
2021/12/18 07:06:06;;;;;;;12.40;7.20;;;3.70;95.50;;;3.38;68.16;95512.63;5101903;28;20488;-58
2021/12/18 07:08:34;;;;;;;13.80;8.20;;;3.70;95.40;;;3.41;67.62;95511.63;5091777;28;20452;-57
2021/12/18 07:11:02;;;;;;;29.93;15.90;;;3.70;95.40;;;3.44;67.27;95508.88;5096701;28;20531;-57
2021/12/18 07:13:29;;;;;;;20.43;11.80;;;3.70;95.40;;;3.52;67.31;95521.47;5095551;28;20453;-57
2021/12/18 07:15:56;;;;;;;15.03;8.80;;;3.80;95.40;;;3.58;67.75;95516.78;5093223;28;20498;-56
2021/12/18 07:18:23;;;;;;;10.03;6.83;;;3.80;95.30;;;3.73;67.27;95511.66;5098219;28;20456;-57
2021/12/18 07:20:51;;;;;;;20.20;7.00;;;4.00;95.50;;;3.98;67.21;95524.19;5098423;28;20473;-57
2021/12/18 07:23:19;;;;;;;15.17;8.30;;;4.10;95.30;;;4.15;66.37;95518.06;5097250;28;20480;-58
2021/12/18 07:25:48;;;;;;;10.43;7.50;;;4.40;94.90;;;4.25;66.06;95516.63;5091770;28;21014;-55
2021/12/18 07:28:15;;;;;;;12.87;9.00;;;4.50;94.50;;;4.41;66.13;95526.19;5093776;28;20993;-58
2021/12/18 07:30:42;;;;;;;13.43;8.80;;;4.60;94.50;;;4.70;66.04;95526.31;5092579;28;21032;-57
2021/12/18 07:33:11;;;;;;;15.57;7.70;;;4.90;94.90;;;5.02;65.19;95522.69;5087622;28;20770;-59
2021/12/18 07:35:38;;;;;;;12.97;8.10;;;5.20;94.30;;;5.27;64.46;95534.28;5089208;28;20525;-56
2021/12/18 07:38:06;;;;;;;17.80;10.10;;;5.50;93.90;;;5.44;63.82;95529.81;5091505;28;20723;-57
2021/12/18 07:40:34;;;;;;;18.73;10.53;;;5.70;93.10;;;5.49;63.47;95531.22;5098435;28;20449;-58
2021/12/18 07:43:02;;;;;;;20.53;11.40;;;5.70;93.00;;;5.53;63.37;95532.72;5095473;28;20533;-59
2021/12/18 07:45:33;;;;;;;23.60;11.50;;;5.80;92.70;;;5.59;62.87;95541.94;5097776;28;20844;-56
2021/12/18 07:48:00;;;;;;;17.97;11.90;;;5.80;92.60;;;5.68;63.10;95548.38;5094026;28;20438;-56
2021/12/18 07:50:28;;;;;;;20.47;10.70;;;5.90;92.40;;;5.72;62.16;95544.66;5095826;28;20450;-58
2021/12/18 07:52:55;;;;;;;27.13;10.07;;;5.90;92.30;;;5.76;62.72;95548.72;5100834;28;20456;-60
2021/12/18 07:55:22;;;;;;;18.20;11.10;;;6.00;92.20;;;5.83;62.40;95554.44;5095143;28;20899;-57
2021/12/18 07:57:51;;;;;;;17.23;9.57;;;6.00;91.90;;;5.83;61.81;95559.66;5093350;28;20458;-56
2021/12/18 08:00:20;;;;;;;17.27;10.77;;;6.00;91.50;;;5.82;61.98;95560.59;5096453;28;20485;-58
2021/12/18 08:02:48;;;;;;;17.73;12.70;;;6.00;91.50;;;5.73;62.02;95556.75;5096422;28;20460;-58
2021/12/18 08:05:15;;;;;;;21.10;13.30;;;6.00;91.40;;;5.67;61.81;95555.38;5100160;28;21027;-57
2021/12/18 08:07:42;;;;;;;20.63;9.23;;;5.90;91.40;;;5.60;61.88;95554.06;5101605;28;20523;-59
2021/12/18 08:10:10;;;;;;;17.87;10.13;;;5.90;91.40;;;5.56;61.69;95566.47;5099607;28;20883;-61
2021/12/18 08:12:38;;;;;;;12.83;9.60;;;5.80;91.30;;;5.58;61.86;95566.38;5098423;28;20473;-56
2021/12/18 08:15:06;;;;;;;15.93;8.10;;;5.80;91.40;;;5.84;62.49;95570.00;5102650;28;20468;-56
2021/12/18 08:17:35;;;;;;;16.70;10.77;;;5.90;91.80;;;6.55;61.86;95570.88;5096949;28;20528;-59
2021/12/18 08:20:03;;;;;;;21.13;11.67;;;6.40;92.10;;;7.46;60.28;95575.38;5103728;28;20468;-58
2021/12/18 08:22:30;;;;;;;22.87;9.70;;;7.20;91.50;;;8.39;58.57;95574.25;5099607;28;20465;-56
2021/12/18 08:24:57;;;;;;;16.53;9.57;;;8.00;90.80;;;9.22;55.15;95568.28;5100218;28;20454;-59
2021/12/18 08:27:24;;;;;;;17.07;9.20;;;8.90;86.60;;;10.05;53.65;95569.00;5098244;28;20477;-58
2021/12/18 08:29:52;;;;;;;15.13;8.60;;;9.70;82.80;;;10.75;51.60;95581.03;5099498;28;20458;-59
2021/12/18 08:32:19;;;;;;;14.97;10.07;;;10.30;78.40;;;11.38;52.11;95576.88;5098387;28;20485;-60
2021/12/18 08:34:48;;;;;;;14.03;7.63;;;11.00;78.70;;;11.76;45.52;95572.84;5100294;28;20446;-61
2021/12/18 08:37:15;;;;;;;10.43;7.70;;;11.40;67.00;;;11.70;48.34;95573.34;5100490;28;20526;-57
2021/12/18 08:39:42;;;;;;;10.13;6.73;;;11.60;68.40;;;11.44;48.06;95577.19;5095994;28;20457;-60
2021/12/18 08:42:10;;;;;;;12.80;6.10;;;11.50;66.80;;;11.08;46.45;95575.81;5093699;28;20477;-59
2021/12/18 08:44:37;;;;;;;14.57;6.77;;;11.30;63.80;;;10.72;47.70;95580.44;5093657;28;20457;-57
2021/12/18 08:47:05;;;;;;;17.00;10.60;;;10.90;64.50;;;10.66;50.29;95580.94;5098838;28;20489;-57
2021/12/18 08:49:33;;;;;;;6.70;4.97;;;10.70;69.70;;;10.77;49.95;95573.84;5101987;28;20525;-58
2021/12/18 08:52:01;;;;;;;9.97;5.53;;;10.80;69.60;;;10.93;50.53;95575.25;5099354;28;20469;-57
2021/12/18 08:54:29;;;;;;;16.47;5.77;;;10.80;70.80;;;11.16;50.07;95576.00;5099665;28;20852;-57
2021/12/18 08:56:56;;;;;;;7.37;5.50;;;11.00;70.30;;;11.56;46.65;95569.25;5096080;28;21032;-57
2021/12/18 08:59:23;;;;;;;17.03;7.50;;;11.30;65.10;;;11.83;46.21;95577.47;5101272;28;20469;-59
2021/12/18 09:01:50;;;;;;;10.57;7.03;;;11.60;64.40;;;11.72;45.02;95572.25;5092555;28;20462;-58
2021/12/18 09:04:18;;;;;;;13.73;9.20;;;11.60;62.30;;;11.29;48.30;95571.41;5096240;28;20469;-59
2021/12/18 09:06:45;;;;;;;10.57;7.53;;;11.40;65.40;;;10.64;45.64;95567.91;5102444;28;21105;-56
2021/12/18 09:09:14;;;;;;;9.10;5.33;;;10.90;60.40;;;9.98;47.43;95573.91;5098921;28;20491;-56
2021/12/18 09:11:41;;;;;;;7.27;5.73;;;10.30;62.50;;;9.50;50.07;95579.34;5102966;28;20461;-57
2021/12/18 09:14:09;;;;;;;85.20;35.37;;;9.80;68.30;;;9.12;49.47;95577.78;5103323;28;20453;-58
2021/12/18 09:16:36;;;;;;;8.70;6.30;;;9.40;67.60;;;8.79;51.97;95571.44;5098116;28;20558;-58
2021/12/18 09:19:03;;;;;;;10.50;5.70;;;9.00;70.90;;;8.55;52.00;95566.16;5098705;28;20456;-60
2021/12/18 09:21:31;;;;;;;7.53;5.20;;;8.80;71.50;;;8.61;51.82;95576.19;5102293;28;20890;-60
2021/12/18 09:23:58;;;;;;;9.33;6.27;;;8.70;72.70;;;8.53;51.35;95576.75;5099587;28;20878;-57
2021/12/18 09:26:26;;;;;;;10.40;7.30;;;8.60;71.50;;;8.36;52.95;95574.47;5094762;28;20516;-59
2021/12/18 09:28:54;;;;;;;13.00;5.90;;;8.50;74.30;;;8.15;53.99;95579.44;5096773;28;20465;-57
2021/12/18 09:31:21;;;;;;;12.90;6.17;;;8.30;75.10;;;8.18;53.92;95576.59;5099675;28;20458;-61
2021/12/18 09:33:48;;;;;;;7.60;5.87;;;8.30;76.10;;;8.58;53.71;95582.53;5094936;28;20476;-58
2021/12/18 09:36:16;;;;;;;6.90;5.77;;;8.50;77.60;;;9.25;52.92;95583.78;5095452;27;20461;-60
2021/12/18 09:38:43;;;;;;;10.17;5.90;;;9.00;77.00;;;9.95;51.51;95565.44;5095911;28;20446;-58
2021/12/18 09:41:10;;;;;;;6.60;5.60;;;9.50;75.90;;;10.62;51.36;95563.72;5097592;28;21161;-60
2021/12/18 09:43:39;;;;;;;5.63;4.80;;;10.20;74.60;;;11.06;50.09;95560.13;5099282;28;20453;-60
2021/12/18 09:46:09;;;;;;;5.57;4.50;;;10.60;72.40;;;11.07;48.97;95553.88;5090739;28;20608;-60
2021/12/18 09:48:36;;;;;;;7.23;4.93;;;10.80;69.30;;;10.76;49.01;95548.50;5091383;28;20872;-60
2021/12/18 09:51:07;;;;;;;4.93;4.47;;;10.60;68.70;;;10.25;48.97;95562.19;5098171;28;20859;-57
2021/12/18 09:53:34;;;;;;;7.10;5.23;;;10.30;67.60;;;9.85;49.92;95550.38;5095919;28;20429;-59
2021/12/18 09:56:02;;;;;;;7.40;5.03;;;9.90;69.90;;;9.66;49.43;95555.38;5091824;28;20488;-59
2021/12/18 09:58:29;;;;;;;6.50;5.13;;;9.80;69.30;;;9.47;48.15;95554.13;5098581;28;20809;-59
2021/12/18 10:00:58;;;;;;;4.90;3.47;;;9.50;66.50;;;9.16;46.86;95545.09;5090668;28;20477;-58
2021/12/18 10:03:46;;;;;;;2.90;2.80;;;9.30;64.80;;;8.82;47.48;95544.16;5089521;28;20465;-59
2021/12/18 10:06:36;;;;;;;3.57;3.27;;;9.00;64.30;;;8.55;50.41;95543.41;5098400;28;20526;-60
2021/12/18 10:09:05;;;;;;;9.00;8.20;;;8.70;69.60;;;8.68;49.87;95543.34;5099687;28;20973;-60
2021/12/18 10:11:33;;;;;;;5.30;4.50;;;8.80;70.40;;;9.26;49.98;95538.19;5093185;28;20538;-58
2021/12/18 10:14:02;;;;;;;4.70;4.17;;;9.10;70.20;;;10.04;47.95;95539.25;5096193;28;20515;-56
2021/12/18 10:16:30;;;;;;;11.93;5.80;;;9.70;67.90;;;10.71;47.80;95534.06;5091755;28;20477;-58
2021/12/18 10:18:58;;;;;;;6.10;5.50;;;10.30;67.40;;;11.32;44.88;95527.34;5093186;28;20461;-59
2021/12/18 10:21:28;;;;;;;6.97;4.23;;;10.90;63.70;;;11.69;45.31;95532.97;5100657;28;21059;-59
2021/12/18 10:23:56;;;;;;;5.30;3.80;;;11.40;62.90;;;12.11;42.39;95532.09;5089631;28;20835;-62
2021/12/18 10:26:36;;;;;;;12.03;7.20;;;11.90;56.70;;;12.60;39.16;95525.16;5089749;28;20839;-60
2021/12/18 10:29:24;;;;;;;5.27;3.00;;;12.30;53.60;;;13.37;42.14;95520.06;5093315;28;20521;-60
2021/12/18 10:31:52;;;;;;;21.00;10.60;;;12.80;57.30;;;14.16;42.51;95522.38;5096189;28;20899;-60
2021/12/18 10:34:21;;;;;;;11.93;3.13;;;13.40;58.00;;;14.58;35.78;95525.50;5095875;27;20441;-59
2021/12/18 10:37:08;;;;;;;5.03;2.53;;;13.80;49.40;;;14.43;35.53;95514.59;5094889;28;20548;-59
2021/12/18 10:39:36;;;;;;;13.27;8.30;;;14.00;47.70;;;13.72;35.30;95519.44;5092787;28;20457;-59
2021/12/18 10:42:16;;;;;;;2.90;2.40;;;13.60;45.80;;;12.72;39.94;95524.06;5095195;28;20543;-59
2021/12/18 10:45:15;;;;;;;3.67;3.37;;;12.90;49.80;;;11.77;39.78;95509.44;5095704;28;20495;-58
2021/12/18 10:47:51;;;;;;;12.07;6.80;;;12.10;49.40;;;11.05;39.53;95505.81;5088899;28;20517;-59
2021/12/18 10:50:21;;;;;;;10.07;2.80;;;11.40;50.10;;;10.36;41.91;95514.91;5089225;28;20450;-58
2021/12/18 10:52:54;;;;;;;1.77;1.63;;;10.70;51.10;;;9.71;43.15;95505.09;5089203;28;20473;-58
2021/12/18 10:55:29;;;;;;;2.27;2.07;;;10.00;52.70;;;9.18;42.60;95503.81;5097711;28;20446;-59
2021/12/18 10:57:56;;;;;;;2.50;2.40;;;9.50;53.40;;;9.02;43.27;95498.91;5098133;28;20457;-59
2021/12/18 11:00:40;;;;;;;2.60;2.10;;;9.10;55.10;;;8.84;43.89;95503.72;5094266;28;20455;-60
2021/12/18 11:03:25;;;;;;;5.87;2.13;;;8.90;56.50;;;8.56;45.20;95512.78;5093360;28;20540;-60
2021/12/18 11:06:17;;;;;;;1.53;1.43;;;8.70;57.40;;;8.71;42.99;95505.59;5093371;28;20469;-58